Terminal Aerodrome Forecast
Issued by NWS Nashville, TN

Home | Current Version | Previous Version | Text Only | Print | Product List | Glossary On
Versions: 1 2 3 4 5 6 7 8 9 10 11 12 13 14 15 16 17
000
FTUS44 KOHX 240500
TAFBNA
TAF
KBNA 240523Z 2406/2506 VRB02KT P6SM SCT020 BKN070
     FM240730 33004KT P6SM OVC020
     FM241000 36005KT P6SM OVC012
     FM241500 01007KT P6SM BKN025
     FM241800 36009KT P6SM SCT250=

USA.gov is the U.S. government's official web portal to all federal, state and local government web resources and services.